Latest Weather Observations for Bathurst Airport

IDN60801

Issued at 8:35 pm EST Tuesday 29 July 2014 (issued every 30 minutes, with the page automatically refreshed every 10 minutes)

About weather observations | Map of weather stations | Latest weather observations for NSW | Other Formats
Station Details ID: 063291 Name: BATHURST AIRPORT AWS Lat: -33.41 Lon: 149.65 Height: 744.5 m
Data from the previous 72 hours. | See also: Recent months for locations in New South Wales
Date/Time
EST
Temp
°C
App
Temp
°C
Dew
Point
Rel
Hum
%
Delta-T
°C
Wind Press
QNH
hPa
Press
MSL
hPa
Rain
since 9 am
mm
Dir
 
Spd
km/h
Gust
km/h
Spd
kts
Gust
kts
29/08:30pm 7.5 3.2 3.2 74 1.9 NNW 15 17 8 9 1019.5 - 0.0
29/08:00pm 7.6 2.5 3.1 73 2.0 NNW 19 20 10 11 1019.4 1020.3 0.0
29/07:30pm 8.6 3.3 3.2 69 2.4 NNW 20 22 11 12 1019.2 - 0.0
29/07:00pm 8.9 3.8 2.9 66 2.7 NW 19 20 10 11 1019.2 1020.1 0.0
29/06:30pm 9.3 4.2 3.1 65 2.8 NW 19 22 10 12 1018.9 - 0.0
29/06:00pm 8.9 4.1 2.7 65 2.7 WNW 17 20 9 11 1018.9 1019.8 0.0
29/05:30pm 9.8 5.3 2.4 60 3.3 WNW 15 17 8 9 1018.5 - 0.0
29/05:00pm 12.6 6.8 2.2 49 4.7 WNW 22 32 12 17 1017.9 1018.8 0.0
29/04:30pm 13.6 7.1 2.5 47 5.1 WNW 26 35 14 19 1017.8 - 0.0
29/04:00pm 14.3 6.3 1.6 42 5.8 W 33 43 18 23 1017.8 1018.7 0.0
29/03:30pm 14.8 7.4 2.0 42 5.9 WNW 30 46 16 25 1017.5 - 0.0
29/03:00pm 15.1 6.2 3.0 44 5.7 WNW 39 46 21 25 1017.5 1018.3 0.0
29/02:30pm 15.1 7.4 3.3 45 5.6 NW 33 41 18 22 1017.9 - 0.0
29/02:00pm 15.2 7.7 3.7 46 5.5 WNW 32 44 17 24 1018.1 1019.0 0.0
29/01:30pm 14.9 7.3 3.1 45 5.6 WNW 32 41 17 22 1018.6 - 0.0
29/01:00pm 14.6 7.4 3.1 46 5.4 WNW 30 37 16 20 1019.6 1020.5 0.0
29/12:30pm 14.6 9.1 4.0 49 5.1 WNW 22 33 12 18 1020.1 - 0.0
29/12:00pm 13.9 8.2 3.1 48 5.0 WNW 22 28 12 15 1020.7 1021.6 0.0
29/11:30am 12.9 6.9 3.3 52 4.5 NW 24 30 13 16 1020.7 - 0.0
29/11:00am 12.2 7.2 3.4 55 4.1 NW 19 26 10 14 1021.2 1022.2 0.0
29/10:30am 11.1 5.1 3.2 58 3.6 NW 24 30 13 16 1021.3 - 0.0
29/10:00am 10.2 5.1 3.9 65 2.9 NW 20 28 11 15 1021.8 1022.7 0.0
29/09:30am 9.0 5.4 5.2 77 1.8 N 13 17 7 9 1021.9 - 0.0
29/09:00am 7.2 3.5 4.7 84 1.1 N 13 15 7 8 1021.5 1022.5 0.2
29/08:30am 5.1 1.4 4.5 96 0.3 N 13 15 7 8 1021.3 - 0.2
29/08:00am 3.5 -0.4 3.2 98 0.1 N 13 15 7 8 1021.1 1022.1 0.2
29/07:30am 3.3 0.1 3.0 98 0.1 N 9 11 5 6 1020.9 - 0.2
29/07:00am 2.4 -1.4 1.5 94 0.4 N 11 13 6 7 1020.6 1021.5 0.2
29/06:30am 4.0 0.7 2.5 90 0.6 NNE 9 9 5 5 1020.4 - 0.2
29/06:00am 4.0 0.9 3.6 97 0.2 N 9 9 5 5 1020.1 1021.1 0.2
29/05:30am 2.8 -0.5 2.7 99 0.0 N 9 13 5 7 1019.9 - 0.2
29/05:00am 3.3 -0.7 2.7 96 0.3 N 13 15 7 8 1019.7 1020.6 0.2
29/04:30am 3.5 0.3 2.8 95 0.3 N 9 11 5 6 1019.6 - 0.2
29/04:00am 3.4 0.2 3.1 98 0.1 N 9 11 5 6 1019.6 1020.5 0.2
29/03:30am 3.4 0.6 3.3 99 0.0 N 7 9 4 5 1019.7 - 0.2
29/03:00am 3.2 -0.1 2.5 95 0.3 N 9 11 5 6 1019.7 1020.6 0.2
29/02:30am 3.4 -0.2 2.8 96 0.3 NNE 11 11 6 6 1019.7 - 0.2
29/02:00am 3.6 0.0 2.9 95 0.3 NNE 11 13 6 7 1019.9 1020.9 0.2
29/01:30am 3.2 -0.4 2.8 97 0.2 N 11 13 6 7 1020.0 - 0.2
29/01:00am 3.8 0.2 3.2 96 0.3 NNE 11 13 6 7 1020.1 1021.1 0.2
29/12:30am 3.6 0.0 2.9 95 0.3 N 11 13 6 7 1020.4 - 0.2
29/12:00am 4.1 1.0 3.5 96 0.3 NNE 9 11 5 6 1020.6 1021.5 0.2
 
Date/Time
EST
Temp
°C
App
Temp
°C
Dew
Point
Rel
Hum
%
Delta-T
°C
Wind Press
QNH
hPa
Press
MSL
hPa
Rain
since 9 am
mm
Dir
 
Spd
km/h
Gust
km/h
Spd
kts
Gust
kts
28/11:30pm 3.6 0.4 3.0 96 0.3 NNE 9 11 5 6 1021.0 - 0.2
28/11:00pm 3.6 0.3 2.7 94 0.4 NNE 9 11 5 6 1021.1 1022.1 0.2
28/10:30pm 4.0 0.8 3.1 94 0.4 N 9 11 5 6 1021.5 - 0.2
28/10:00pm 4.3 1.1 3.0 91 0.6 N 9 11 5 6 1021.5 1022.5 0.2
28/09:30pm 4.6 1.7 2.8 88 0.8 NNE 7 9 4 5 1021.5 - 0.2
28/09:00pm 5.4 2.6 3.1 85 1.0 N 7 11 4 6 1021.6 1022.6 0.2
28/08:30pm 5.5 2.7 3.0 84 1.1 N 7 9 4 5 1021.4 - 0.2
28/08:00pm 5.9 3.1 3.2 83 1.2 N 7 9 4 5 1021.4 1022.4 0.2
28/07:30pm 6.4 3.6 3.4 81 1.3 N 7 9 4 5 1021.1 - 0.2
28/07:00pm 5.9 2.3 3.1 82 1.2 NW 11 13 6 7 1021.0 1022.0 0.2
28/06:30pm 6.6 2.4 3.8 82 1.2 WNW 15 17 8 9 1021.1 - 0.2
28/06:00pm 7.5 3.3 3.9 78 1.6 NW 15 17 8 9 1020.6 1021.5 0.2
28/05:30pm 9.0 4.1 4.2 72 2.2 NW 19 22 10 12 1020.5 - 0.2
28/05:00pm 10.9 6.5 4.6 65 3.0 NW 17 20 9 11 1020.2 1021.2 0.2
28/04:30pm 11.3 6.4 4.1 61 3.4 WNW 19 26 10 14 1020.2 - 0.2
28/04:00pm 12.7 7.7 4.4 57 3.9 WNW 20 26 11 14 1020.1 1021.1 0.2
28/03:30pm 12.3 7.1 3.5 55 4.1 WNW 20 26 11 14 1020.1 - 0.2
28/03:00pm 12.3 7.1 3.5 55 4.1 WNW 20 26 11 14 1020.2 1021.2 0.2
28/02:30pm 13.3 7.8 3.9 53 4.4 WNW 22 30 12 16 1020.5 - 0.2
28/02:00pm 12.5 7.2 3.2 53 4.3 W 20 26 11 14 1020.5 1021.4 0.2
28/01:30pm 12.5 8.8 4.7 59 3.7 W 13 19 7 10 1020.9 - 0.2
28/01:00pm 11.7 8.0 6.2 69 2.7 NW 15 19 8 10 1021.3 1022.3 0.2
28/12:30pm 11.5 8.0 5.4 66 2.9 W 13 20 7 11 1021.9 - 0.0
28/12:00pm 11.0 8.5 6.4 73 2.2 NNW 9 15 5 8 1022.3 1023.3 0.0
28/11:30am 10.2 7.7 6.7 79 1.7 NNW 9 13 5 7 1022.8 - 0.0
28/11:00am 8.7 5.9 7.0 89 0.8 N 11 17 6 9 1023.3 1024.2 0.0
28/10:30am 7.3 4.9 7.2 99 0.0 N 9 13 5 7 1023.5 - 0.0
28/10:25am 6.7 4.2 6.6 99 0.0 N 9 13 5 7 1023.5 - 0.0
28/10:23am 6.7 4.2 6.7 100 0.0 N 9 13 5 7 1023.5 - 0.0
28/10:00am 4.9 2.0 4.9 100 0.0 N 9 11 5 6 1023.5 1024.5 0.0
28/09:30am 2.5 -0.4 2.5 100 0.0 NNE 7 11 4 6 1023.3 - 0.0
28/09:00am 0.3 -1.7 0.2 99 0.0 CALM 0 0 0 0 1023.7 1024.7 0.0
28/08:30am -0.9 -3.0 -1.0 99 0.0 CALM 0 0 0 0 1023.4 - 0.0
28/08:02am -0.7 -2.8 -0.8 99 0.0 CALM 0 0 0 0 1023.4 - 0.0
28/08:00am -0.8 -2.9 -0.9 99 0.0 CALM 0 0 0 0 1023.5 1024.5 0.0
28/07:30am -1.0 -3.1 -1.1 99 0.0 CALM 0 6 0 3 1023.1 - 0.0
28/07:00am -0.1 -3.4 -0.2 99 0.0 NE 7 9 4 5 1023.0 1024.0 0.0
28/06:30am -0.1 -2.1 -0.2 99 0.0 CALM 0 0 0 0 1023.1 - 0.0
28/06:00am 0.2 -1.8 0.1 99 0.0 CALM 0 0 0 0 1022.8 1023.8 0.0
28/05:41am 0.0 -2.0 -0.1 99 0.0 CALM 0 0 0 0 1022.7 - 0.0
28/05:30am -0.2 -3.0 -0.3 99 0.0 NE 4 6 2 3 1022.7 - 0.0
28/05:00am 0.8 -2.8 0.7 99 0.0 NE 9 11 5 6 1022.3 1023.3 0.0
28/04:30am 1.7 0.0 1.6 99 0.0 CALM 0 0 0 0 1022.5 - 0.0
28/04:26am 2.1 0.4 2.0 99 0.0 CALM 0 0 0 0 1022.6 - 0.0
28/04:00am 1.8 0.1 1.7 99 0.0 CALM 0 0 0 0 1022.8 1023.8 0.0
28/03:30am 2.6 -0.1 2.5 99 0.0 NNE 6 9 3 5 1022.6 - 0.0
28/03:24am 2.0 -0.8 1.9 99 0.0 NE 6 7 3 4 1022.8 - 0.0
28/03:00am 1.0 -2.2 0.9 99 0.0 N 7 9 4 5 1022.5 1023.5 0.0
28/02:46am 1.3 -2.2 1.2 99 0.0 NE 9 11 5 6 1022.6 - 0.0
28/02:30am 2.8 -0.5 2.7 99 0.0 NE 9 11 5 6 1022.6 - 0.0
28/02:02am 2.7 1.1 2.6 99 0.0 CALM 0 0 0 0 1023.7 - 0.0
28/02:00am 2.5 0.9 2.4 99 0.0 CALM 0 0 0 0 1023.7 1024.7 0.0
28/01:30am 1.7 -0.8 1.6 99 0.0 NE 4 7 2 4 1023.5 - 0.0
28/01:26am 1.7 -0.4 1.6 99 0.0 E 2 7 1 4 1023.5 - 0.0
28/01:00am 3.1 1.2 3.0 99 0.0 SE 2 6 1 3 1023.4 1024.4 0.0
28/12:30am 3.8 1.1 3.7 99 0.0 S 7 9 4 5 1023.7 - 0.0
28/12:00am 3.9 1.2 3.8 99 0.0 SW 7 9 4 5 1023.6 1024.6 0.0
 
Date/Time
EST
Temp
°C
App
Temp
°C
Dew
Point
Rel
Hum
%
Delta-T
°C
Wind Press
QNH
hPa
Press
MSL
hPa
Rain
since 9 am
mm
Dir
 
Spd
km/h
Gust
km/h
Spd
kts
Gust
kts
27/11:44pm 3.8 1.3 3.7 99 0.0 SW 6 9 3 5 1023.4 - 0.0
27/11:30pm 3.6 0.9 3.5 99 0.0 SW 7 7 4 4 1023.8 - 0.0
27/11:25pm 3.6 0.9 3.5 99 0.0 WSW 7 11 4 6 1023.9 - 0.0
27/11:00pm 3.1 -0.5 3.0 99 0.0 WSW 11 11 6 6 1024.1 1025.1 0.0
27/10:30pm 4.7 2.6 4.1 96 0.3 N 4 7 2 4 1023.9 - 0.0
27/10:00pm 5.0 2.0 4.3 95 0.3 NE 9 11 5 6 1023.7 1024.7 0.0
27/09:30pm 5.6 3.0 4.4 92 0.5 N 7 7 4 4 1024.3 - 0.0
27/09:00pm 7.0 4.2 5.0 87 0.9 WSW 9 11 5 6 1025.0 1026.0 0.0
27/08:30pm 7.1 4.6 4.8 85 1.1 WSW 7 13 4 7 1025.1 - 0.0
27/08:00pm 6.8 4.3 4.6 86 1.0 SSW 7 9 4 5 1025.1 1026.1 0.0
27/07:30pm 6.5 4.0 4.0 84 1.1 SSW 6 7 3 4 1025.1 - 0.0
27/07:00pm 6.6 3.6 3.9 83 1.2 S 9 11 5 6 1025.0 1026.0 0.0
27/06:30pm 6.4 3.3 3.6 82 1.2 SW 9 9 5 5 1024.8 - 0.0
27/06:00pm 6.5 2.7 3.8 83 1.2 W 13 15 7 8 1024.4 1025.5 0.0
27/05:30pm 7.7 3.5 3.9 77 1.7 WSW 15 17 8 9 1024.1 - 0.0
27/05:00pm 9.0 4.5 4.2 72 2.2 WSW 17 22 9 12 1023.8 1024.8 0.0
27/04:30pm 10.3 5.3 4.7 68 2.6 WSW 20 26 11 14 1023.9 - 0.0
27/04:00pm 11.4 6.8 5.5 67 2.8 WSW 19 28 10 15 1023.6 1024.6 0.0
27/03:30pm 11.9 7.0 5.3 64 3.2 W 20 26 11 14 1023.4 - 0.0
27/03:00pm 12.3 7.6 5.2 62 3.4 WSW 19 26 10 14 1023.5 1024.5 0.0
27/02:30pm 12.5 9.1 5.9 64 3.2 WSW 13 20 7 11 1023.4 - 0.0
27/02:00pm 12.1 7.7 5.0 62 3.4 WSW 17 24 9 13 1023.6 1024.6 0.0
27/01:30pm 12.4 8.3 6.0 65 3.1 W 17 20 9 11 1024.0 - 0.0
27/01:00pm 11.8 7.3 5.9 67 2.9 W 19 22 10 12 1024.2 1025.2 0.0
27/12:30pm 11.4 7.0 4.6 63 3.2 SW 17 24 9 13 1024.7 - 0.0
27/12:00pm 11.1 7.8 4.6 64 3.0 SW 11 19 6 10 1025.1 1026.1 0.0
27/11:30am 11.1 8.6 6.5 73 2.3 NW 9 13 5 7 1025.7 - 0.0
27/11:00am 9.7 7.1 6.1 78 1.7 WSW 9 11 5 6 1026.3 1027.3 0.0
27/10:30am 8.7 6.6 4.1 73 2.1 SW 4 7 2 4 1026.5 - 0.0
27/10:00am 9.2 7.5 5.9 80 1.6 W 4 9 2 5 1026.6 1027.6 0.0
27/09:30am 7.6 6.2 5.6 87 0.9 SW 2 9 1 5 1026.6 - 0.0
27/09:00am 6.5 5.7 6.4 99 0.0 CALM 0 0 0 0 1026.7 1027.7 1.2
27/08:40am 5.8 4.8 5.7 99 0.0 CALM 0 0 0 0 1026.4 - 1.2
27/08:30am 5.3 4.2 5.2 99 0.0 CALM 0 0 0 0 1026.4 - 1.2
27/08:00am 4.6 3.4 4.5 99 0.0 CALM 0 0 0 0 1026.2 1027.2 1.2
27/07:30am 3.9 1.4 3.8 99 0.0 NNE 6 7 3 4 1025.9 - 1.2
27/07:19am 3.4 0.8 3.3 99 0.0 NNE 6 9 3 5 1025.8 - 1.2
27/07:00am 3.1 0.5 3.0 99 0.0 NNE 6 7 3 4 1025.5 1026.5 1.2
27/06:30am 3.3 1.1 3.2 99 0.0 SSE 4 9 2 5 1025.4 - 1.2
27/06:00am 3.9 2.5 3.8 99 0.0 CALM 0 2 0 1 1025.3 1026.3 1.2
27/05:30am 4.5 2.1 4.4 99 0.0 SW 6 7 3 4 1024.9 - 1.2
27/05:00am 4.5 2.1 4.4 99 0.0 SSW 6 7 3 4 1024.7 1025.7 1.2
27/04:30am 4.7 2.2 4.6 99 0.0 SW 7 9 4 5 1024.8 - 1.2
27/04:00am 4.2 1.1 3.6 96 0.3 SW 9 9 5 5 1024.9 1025.9 1.2
27/03:30am 5.4 2.2 5.3 99 0.0 S 11 13 6 7 1024.7 - 1.2
27/03:00am 5.4 2.2 5.3 99 0.0 S 11 13 6 7 1024.9 1025.9 1.2
27/02:30am 4.7 1.8 4.6 99 0.0 SSW 9 9 5 5 1024.9 - 1.2
27/02:00am 4.8 1.1 4.7 99 0.0 WSW 13 17 7 9 1025.0 1026.0 1.2
27/01:30am 5.8 2.4 5.7 99 0.0 WSW 13 15 7 8 1025.2 - 1.2
27/01:00am 5.0 1.8 4.9 99 0.0 WSW 11 15 6 8 1025.3 1026.3 1.2
27/12:30am 4.8 3.2 4.7 99 0.0 W 2 7 1 4 1025.4 - 1.2
27/12:00am 5.0 2.5 4.9 99 0.0 SW 7 11 4 6 1025.3 1026.3 1.2
 
Date/Time
EST
Temp
°C
App
Temp
°C
Dew
Point
Rel
Hum
%
Delta-T
°C
Wind Press
QNH
hPa
Press
MSL
hPa
Rain
since 9 am
mm
Dir
 
Spd
km/h
Gust
km/h
Spd
kts
Gust
kts
26/11:30pm 4.9 2.0 4.8 99 0.0 WSW 9 11 5 6 1025.5 - 1.2
26/11:00pm 5.8 3.1 5.7 99 0.0 SW 9 11 5 6 1025.6 1026.7 1.2
26/10:30pm 5.6 2.9 5.5 99 0.0 WSW 9 9 5 5 1025.7 - 1.2
26/10:00pm 5.8 3.5 5.7 99 0.0 W 7 9 4 5 1025.7 1026.8 1.2
26/09:30pm 6.4 4.8 6.3 99 0.0 WNW 4 7 2 4 1025.7 - 1.2
26/09:00pm 6.2 3.9 5.6 96 0.3 N 7 7 4 4 1025.4 1026.4 1.2

Other Formats:

Comma delimited format used in spreadsheet applications
http://www.bom.gov.au/fwo/IDN60801/IDN60801.94729.axf

JavaScript Object Notation format (JSON) in row-major order
http://www.bom.gov.au/fwo/IDN60801/IDN60801.94729.json